This is the latest recevied weather packets stored in our database for station/object YM2KV-13. If no packets are shown the sender has not sent any weather packets the latest 10 day(s).
| Time | Temp. | Humidity | Pressure | Rain* | Wind** | Luminosity | Snow |
|---|---|---|---|---|---|---|---|
| 1777716582 | 13.33° C | 60% | 1028.8 hPa | - | - | - | - |
| 1777715982 | 13.89° C | 58% | 1028.8 hPa | - | - | - | - |
| 1777715382 | 13.89° C | 58% | 1028.6 hPa | - | - | - | - |
| 1777714782 | 14.44° C | 59% | 1028.7 hPa | - | - | - | - |
| 1777714182 | 15° C | 58% | 1028.8 hPa | - | - | - | - |
| 1777713582 | 15° C | 58% | 1028.9 hPa | - | - | - | - |
| 1777712982 | 14.44° C | 58% | 1028.9 hPa | - | - | - | - |
| 1777712382 | 14.44° C | 58% | 1029 hPa | - | - | - | - |
| 1777711782 | 13.89° C | 59% | 1029.1 hPa | - | - | - | - |
| 1777711182 | 13.89° C | 58% | 1029.3 hPa | - | - | - | - |
| 1777710582 | 13.89° C | 59% | 1029.3 hPa | - | - | - | - |
| 1777709982 | 13.89° C | 60% | 1029.4 hPa | - | - | - | - |
| 1777709382 | 13.33° C | 59% | 1029.5 hPa | - | - | - | - |
| 1777708782 | 13.89° C | 60% | 1029.6 hPa | - | - | - | - |
| 1777708182 | 13.89° C | 59% | 1029.7 hPa | - | - | - | - |
| 1777707582 | 15° C | 56% | 1029.7 hPa | - | - | - | - |
| 1777706982 | 13.33° C | 58% | 1029.8 hPa | - | - | - | - |
| 1777706382 | 13.33° C | 61% | 1029.7 hPa | - | - | - | - |
| 1777705782 | 14.44° C | 57% | 1029.8 hPa | - | - | - | - |
| 1777705182 | 13.89° C | 57% | 1029.9 hPa | - | - | - | - |
| 1777704582 | 13.89° C | 60% | 1030 hPa | - | - | - | - |
| 1777703982 | 13.33° C | 62% | 1030.1 hPa | - | - | - | - |
| 1777703382 | 12.22° C | 63% | 1030.2 hPa | - | - | - | - |
| 1777702782 | 11.67° C | 64% | 1030.3 hPa | - | - | - | - |
| 1777702182 | 11.11° C | 71% | 1030.2 hPa | - | - | - | - |
* Rain since midnight (hover to see other rain measurements)
** Current wind speed in m/s (hover to see current wind gust speed)